createdAt,value
2019-05-05T00:01:26.430Z,10.10
2019-05-05T00:04:04.530Z,10.00
2019-05-05T00:06:35.029Z,10.10
2019-05-05T00:09:06.701Z,10.10
2019-05-05T00:11:39.003Z,10.10
2019-05-05T00:14:10.106Z,10.20
2019-05-05T00:16:44.935Z,10.20
2019-05-05T00:19:29.010Z,10.30
2019-05-05T00:21:50.559Z,10.40
2019-05-05T00:24:21.266Z,10.40
2019-05-05T00:26:51.701Z,10.40
2019-05-05T00:29:22.125Z,10.50
2019-05-05T00:31:54.631Z,10.50
2019-05-05T00:34:24.630Z,10.50
2019-05-05T00:36:55.328Z,10.50
2019-05-05T00:39:27.633Z,10.50
2019-05-05T00:41:58.062Z,10.40
2019-05-05T00:44:28.462Z,10.30
2019-05-05T00:47:00.457Z,10.20
2019-05-05T00:49:44.094Z,10.20
2019-05-05T00:52:05.412Z,10.20
2019-05-05T00:54:35.799Z,10.30
2019-05-05T00:57:06.234Z,10.30
2019-05-05T00:59:38.106Z,10.30
2019-05-05T01:02:10.046Z,10.30
2019-05-05T01:04:47.837Z,10.30
2019-05-05T01:07:18.401Z,10.30
2019-05-05T01:09:48.869Z,10.30
2019-05-05T01:12:20.014Z,10.40
2019-05-05T01:14:50.550Z,10.40
2019-05-05T01:17:20.902Z,10.40
2019-05-05T01:20:01.115Z,10.40
2019-05-05T01:22:24.986Z,10.40
2019-05-05T01:24:55.581Z,10.40
2019-05-05T01:27:26.374Z,10.30
2019-05-05T01:29:56.802Z,10.30
2019-05-05T01:32:35.147Z,10.30
2019-05-05T01:35:08.144Z,10.20
2019-05-05T01:37:40.066Z,10.20
2019-05-05T01:40:17.065Z,10.30
2019-05-05T01:42:47.413Z,10.30
2019-05-05T01:45:18.948Z,10.20
2019-05-05T01:47:49.321Z,10.10
2019-05-05T01:50:21.349Z,10.10
2019-05-05T01:52:51.715Z,10.10
2019-05-05T01:55:22.127Z,10.10
2019-05-05T01:57:54.341Z,10.00
2019-05-05T02:00:25.372Z,10.00
2019-05-05T02:02:56.214Z,10.10
2019-05-05T02:05:26.635Z,10.00
2019-05-05T02:07:57.010Z,10.00
2019-05-05T02:10:27.419Z,10.00
2019-05-05T02:12:57.776Z,9.90
2019-05-05T02:15:28.206Z,9.80
2019-05-05T02:17:58.575Z,9.70
2019-05-05T02:20:48.450Z,9.50
2019-05-05T02:23:19.102Z,9.50
2019-05-05T02:25:49.610Z,9.50
2019-05-05T02:28:20.068Z,9.50
2019-05-05T02:30:57.892Z,9.50
2019-05-05T02:33:56.867Z,9.50
2019-05-05T02:46:39.604Z,9.40
2019-05-05T02:53:11.896Z,9.30
2019-05-05T03:02:58.966Z,9.20
2019-05-05T03:12:04.750Z,9.20
2019-05-05T03:18:13.476Z,9.10
2019-05-05T03:30:37.857Z,8.90
2019-05-05T03:33:17.600Z,8.90
2019-05-05T03:49:40.959Z,8.50
2019-05-05T04:15:24.498Z,8.50
2019-05-05T04:17:57.646Z,8.40
2019-05-05T04:20:29.690Z,8.50
2019-05-05T04:23:00.110Z,8.50
2019-05-05T04:25:32.009Z,8.60
2019-05-05T04:28:04.237Z,8.70
2019-05-05T04:30:34.420Z,8.80
2019-05-05T04:33:06.522Z,8.80
2019-05-05T04:35:36.889Z,8.80
2019-05-05T04:38:07.387Z,8.90
2019-05-05T04:40:37.743Z,8.80
2019-05-05T04:43:08.185Z,8.90
2019-05-05T04:45:38.521Z,8.90
2019-05-05T04:48:10.526Z,8.80
2019-05-05T04:50:45.258Z,8.90
2019-05-05T04:53:17.264Z,9.00
2019-05-05T04:55:47.680Z,9.00
2019-05-05T04:58:18.105Z,9.10
2019-05-05T05:00:48.507Z,9.20
2019-05-05T05:03:39.061Z,9.20
2019-05-05T05:06:11.069Z,9.30
2019-05-05T05:08:41.478Z,9.30
2019-05-05T05:11:14.187Z,9.20
2019-05-05T05:13:44.724Z,9.20
2019-05-05T05:16:15.129Z,9.40
2019-05-05T05:18:45.532Z,9.40
2019-05-05T05:21:15.926Z,9.40
2019-05-05T05:23:46.339Z,9.40
2019-05-05T05:26:16.756Z,9.40
2019-05-05T05:28:47.166Z,9.30
2019-05-05T05:31:17.574Z,9.20
2019-05-05T05:33:47.988Z,9.10
2019-05-05T05:36:18.426Z,9.10
2019-05-05T05:38:50.405Z,9.10
2019-05-05T05:41:39.030Z,9.10
2019-05-05T05:44:11.027Z,9.10
2019-05-05T05:46:49.023Z,9.10
2019-05-05T05:49:21.017Z,9.10
2019-05-05T05:51:51.411Z,9.10
2019-05-05T05:54:23.521Z,9.00
2019-05-05T05:56:53.913Z,9.00
2019-05-05T05:59:24.756Z,8.90
2019-05-05T06:02:08.952Z,8.90
2019-05-05T06:04:27.636Z,8.90
2019-05-05T06:07:00.510Z,8.80
2019-05-05T06:09:30.924Z,8.70
2019-05-05T06:12:03.575Z,8.60
2019-05-05T06:14:38.768Z,8.70
2019-05-05T06:17:10.009Z,8.70
2019-05-05T06:19:44.432Z,8.80
2019-05-05T06:22:28.196Z,8.60
2019-05-05T06:24:48.932Z,8.60
2019-05-05T06:27:20.153Z,8.50
2019-05-05T06:29:54.131Z,8.50
2019-05-05T06:32:23.987Z,8.40
2019-05-05T06:34:55.884Z,8.40
2019-05-05T06:37:29.342Z,8.30
2019-05-05T06:40:04.225Z,8.40
2019-05-05T06:42:46.261Z,8.40
2019-05-05T06:45:34.365Z,8.50
2019-05-05T06:48:04.891Z,8.30
2019-05-05T06:50:35.410Z,8.00
2019-05-05T06:53:05.754Z,7.80
2019-05-05T06:55:36.163Z,7.70
2019-05-05T06:58:10.421Z,7.70
2019-05-05T07:00:40.828Z,7.70
2019-05-05T07:03:13.918Z,7.80
2019-05-05T07:05:45.403Z,7.80
2019-05-05T07:08:19.351Z,7.80
2019-05-05T07:10:50.926Z,7.90
2019-05-05T07:13:21.322Z,7.90
2019-05-05T07:15:54.225Z,7.70
2019-05-05T07:18:26.342Z,7.70
2019-05-05T07:20:58.062Z,7.70
2019-05-05T07:23:29.978Z,7.60
2019-05-05T07:26:00.347Z,7.60
2019-05-05T07:28:34.333Z,7.70
2019-05-05T07:31:07.523Z,7.80
2019-05-05T07:33:40.044Z,7.90
2019-05-05T07:36:28.647Z,8.00
2019-05-05T07:38:59.081Z,8.00
2019-05-05T07:41:29.482Z,8.10
2019-05-05T07:44:01.456Z,8.20
2019-05-05T07:46:31.866Z,8.20
2019-05-05T07:49:03.868Z,8.30
2019-05-05T07:51:36.206Z,8.40
2019-05-05T07:54:07.670Z,8.60
2019-05-05T07:56:39.377Z,8.60
2019-05-05T07:59:09.797Z,8.90
2019-05-05T08:01:43.317Z,9.20
2019-05-05T08:04:13.691Z,9.30
2019-05-05T08:06:44.565Z,9.40
2019-05-05T08:09:15.142Z,9.30
2019-05-05T08:11:45.573Z,9.40
2019-05-05T08:14:15.915Z,9.20
2019-05-05T08:16:50.746Z,9.10
2019-05-05T08:19:25.680Z,9.20
2019-05-05T08:21:56.073Z,9.30
2019-05-05T08:24:44.659Z,9.40
2019-05-05T08:27:21.002Z,9.60
2019-05-05T08:30:02.124Z,9.70
2019-05-05T08:32:36.726Z,9.70
2019-05-05T08:35:08.113Z,9.60
2019-05-05T08:37:38.669Z,9.80
2019-05-05T08:40:09.305Z,9.90
2019-05-05T08:42:39.672Z,10.00
2019-05-05T08:45:10.291Z,9.80
2019-05-05T08:47:40.666Z,9.60
2019-05-05T08:50:11.213Z,9.60
2019-05-05T08:52:41.670Z,9.80
2019-05-05T08:55:13.970Z,9.80
2019-05-05T08:57:44.735Z,9.80
2019-05-05T09:00:15.723Z,9.90
2019-05-05T09:02:46.143Z,10.00
2019-05-05T09:05:19.132Z,10.00
2019-05-05T09:07:49.569Z,10.00
2019-05-05T09:10:23.550Z,10.00
2019-05-05T09:12:56.331Z,10.00
2019-05-05T09:15:26.682Z,9.90
2019-05-05T09:17:57.114Z,10.00
2019-05-05T09:20:27.466Z,10.00
2019-05-05T09:22:57.895Z,10.10
2019-05-05T09:25:29.817Z,10.20
2019-05-05T09:28:06.193Z,10.30
2019-05-05T09:30:47.068Z,10.30
2019-05-05T09:33:18.368Z,10.30
2019-05-05T09:35:49.689Z,10.50
2019-05-05T09:38:20.603Z,10.60
2019-05-05T09:40:50.967Z,10.60
2019-05-05T09:43:24.037Z,10.70
2019-05-05T09:45:55.994Z,10.70
2019-05-05T09:48:26.429Z,10.90
2019-05-05T09:50:59.570Z,10.80
2019-05-05T09:53:34.604Z,10.80
2019-05-05T09:56:05.560Z,10.90
2019-05-05T09:58:35.986Z,10.90
2019-05-05T10:01:07.926Z,11.00
2019-05-05T10:03:38.331Z,11.20
2019-05-05T10:06:09.762Z,11.10
2019-05-05T10:08:40.284Z,11.20
2019-05-05T10:11:10.786Z,11.20
2019-05-05T10:13:41.237Z,11.30
2019-05-05T10:16:11.631Z,11.40
2019-05-05T10:18:42.012Z,11.60
2019-05-05T10:21:13.848Z,11.60
2019-05-05T10:23:46.554Z,11.70
2019-05-05T10:26:16.987Z,11.60
2019-05-05T10:28:47.391Z,11.80
2019-05-05T10:31:17.766Z,11.90
2019-05-05T10:33:50.993Z,11.90
2019-05-05T10:36:24.562Z,11.90
2019-05-05T10:39:16.437Z,11.90
2019-05-05T10:41:48.745Z,12.10
2019-05-05T10:44:18.332Z,12.00
2019-05-05T10:46:49.997Z,11.90
2019-05-05T10:49:20.439Z,11.90
2019-05-05T10:51:54.169Z,11.90
2019-05-05T10:54:24.036Z,12.00
2019-05-05T10:56:54.452Z,12.00
2019-05-05T10:59:24.859Z,11.90
2019-05-05T11:01:55.267Z,12.00
2019-05-05T11:04:27.169Z,12.10
2019-05-05T11:07:00.344Z,12.30
2019-05-05T11:09:31.206Z,12.30
2019-05-05T11:12:02.348Z,12.30
2019-05-05T11:14:35.060Z,12.20
2019-05-05T11:17:07.374Z,12.10
2019-05-05T11:19:37.850Z,12.10
2019-05-05T11:24:57.679Z,12.10
2019-05-05T11:27:16.240Z,12.20
2019-05-05T11:29:58.172Z,12.20
2019-05-05T11:32:45.978Z,12.20
2019-05-05T11:35:19.583Z,12.30
2019-05-05T11:37:49.930Z,12.20
2019-05-05T11:40:21.958Z,12.20
2019-05-05T11:42:54.060Z,12.10
2019-05-05T11:45:24.383Z,12.10
2019-05-05T11:47:54.749Z,12.10
2019-05-05T11:50:25.179Z,12.10
2019-05-05T11:52:55.532Z,12.10
2019-05-05T11:55:25.960Z,12.30
2019-05-05T11:57:57.710Z,12.40
2019-05-05T12:00:28.449Z,12.40
2019-05-05T12:02:59.574Z,12.50
2019-05-05T12:05:30.127Z,12.50
2019-05-05T12:08:00.484Z,12.60
2019-05-05T12:10:34.465Z,12.60
2019-05-05T12:13:09.148Z,12.40
2019-05-05T12:15:44.533Z,12.30
2019-05-05T12:18:15.578Z,12.10
2019-05-05T12:20:46.022Z,12.00
2019-05-05T12:23:17.978Z,12.00
2019-05-05T12:25:56.647Z,12.10
2019-05-05T12:28:26.414Z,12.30
2019-05-05T12:31:18.420Z,12.30
2019-05-05T12:33:50.302Z,12.30
2019-05-05T12:36:23.528Z,12.40
2019-05-05T12:38:54.649Z,12.40
2019-05-05T12:41:25.328Z,12.40
2019-05-05T12:43:55.676Z,12.30
2019-05-05T12:46:30.537Z,12.30
2019-05-05T12:49:04.599Z,12.20
2019-05-05T12:51:34.526Z,12.10
2019-05-05T12:54:05.378Z,12.20
2019-05-05T12:56:35.945Z,12.30
2019-05-05T12:59:09.182Z,12.20
2019-05-05T13:01:41.213Z,12.30
2019-05-05T13:04:11.563Z,12.30
2019-05-05T13:06:42.221Z,12.10
2019-05-05T13:09:16.389Z,12.10
2019-05-05T13:11:48.521Z,12.10
2019-05-05T13:14:20.712Z,12.10
2019-05-05T13:16:53.943Z,12.10
2019-05-05T13:19:27.130Z,12.10
2019-05-05T13:22:00.591Z,12.10
2019-05-05T13:24:34.334Z,12.10
2019-05-05T13:27:10.332Z,11.90
2019-05-05T13:29:38.234Z,11.80
2019-05-05T13:32:08.598Z,11.70
2019-05-05T13:34:40.327Z,11.60
2019-05-05T13:37:10.921Z,11.50
2019-05-05T13:39:44.437Z,11.40
2019-05-05T13:42:16.139Z,11.30
2019-05-05T13:45:07.452Z,11.20
2019-05-05T13:47:40.353Z,11.00
2019-05-05T13:50:14.225Z,10.90
2019-05-05T13:52:45.055Z,10.70
2019-05-05T13:55:16.003Z,10.30
2019-05-05T13:57:46.469Z,10.10
2019-05-05T14:00:18.769Z,10.10
2019-05-05T14:02:49.132Z,10.00
2019-05-05T14:05:20.745Z,9.90
2019-05-05T14:07:51.099Z,10.00
2019-05-05T14:10:23.510Z,9.90
2019-05-05T14:12:53.777Z,9.80
2019-05-05T14:15:25.091Z,9.60
2019-05-05T14:17:55.546Z,9.30
2019-05-05T14:20:25.950Z,9.20
2019-05-05T14:22:56.318Z,9.20
2019-05-05T14:25:28.300Z,9.30
2019-05-05T14:27:58.647Z,9.30
2019-05-05T14:30:34.108Z,9.30
2019-05-05T14:33:07.446Z,9.30
2019-05-05T14:35:39.434Z,9.40
2019-05-05T14:38:27.244Z,9.40
2019-05-05T14:40:57.649Z,9.30
2019-05-05T14:43:28.391Z,9.40
2019-05-05T14:45:58.823Z,9.40
2019-05-05T14:48:29.176Z,9.50
2019-05-05T14:50:59.605Z,9.50
2019-05-05T14:53:29.946Z,9.60
2019-05-05T14:56:00.438Z,9.60
2019-05-05T14:58:30.787Z,9.50
2019-05-05T15:01:01.199Z,9.60
2019-05-05T15:03:33.698Z,9.60
2019-05-05T15:06:05.667Z,9.60
2019-05-05T15:08:55.702Z,9.50
2019-05-05T15:11:44.494Z,9.50
2019-05-05T15:14:16.535Z,9.60
2019-05-05T15:16:46.921Z,9.50
2019-05-05T15:19:17.358Z,9.50
2019-05-05T15:21:48.925Z,9.50
2019-05-05T15:24:19.639Z,9.50
2019-05-05T15:26:52.704Z,9.60
2019-05-05T15:29:22.114Z,9.60
2019-05-05T15:31:53.851Z,9.50
2019-05-05T15:34:24.503Z,9.60
2019-05-05T15:36:54.974Z,9.60
2019-05-05T15:39:25.388Z,9.60
2019-05-05T15:41:55.734Z,9.60
2019-05-05T15:44:26.171Z,9.70
2019-05-05T15:46:58.038Z,9.70
2019-05-05T15:49:28.570Z,9.70
2019-05-05T15:51:58.915Z,9.80
2019-05-05T15:54:29.339Z,9.70
2019-05-05T15:57:05.321Z,9.70
2019-05-05T15:59:31.741Z,9.70
2019-05-05T16:02:04.145Z,9.80
2019-05-05T16:04:34.208Z,9.80
2019-05-05T16:07:05.606Z,9.80
2019-05-05T16:09:36.015Z,9.70
2019-05-05T16:12:06.366Z,9.80
2019-05-05T16:14:38.345Z,9.90
2019-05-05T16:17:28.591Z,9.80
2019-05-05T16:20:06.586Z,9.90
2019-05-05T16:22:43.547Z,9.80
2019-05-05T16:25:16.372Z,9.80
2019-05-05T16:27:46.800Z,9.80
2019-05-05T16:30:18.051Z,9.80
2019-05-05T16:32:48.459Z,9.80
2019-05-05T16:35:18.919Z,9.80
2019-05-05T16:37:49.261Z,9.80
2019-05-05T16:40:20.856Z,9.70
2019-05-05T16:42:51.981Z,9.80
2019-05-05T16:45:24.547Z,9.70
2019-05-05T16:47:54.633Z,9.80
2019-05-05T16:50:26.498Z,9.90
2019-05-05T16:53:04.555Z,9.90
2019-05-05T16:55:39.870Z,9.80
2019-05-05T16:58:10.218Z,9.80
2019-05-05T17:00:40.910Z,9.80
2019-05-05T17:03:13.347Z,9.70
2019-05-05T17:05:46.374Z,9.80
2019-05-05T17:08:15.331Z,9.70
2019-05-05T17:10:45.755Z,9.70
2019-05-05T17:13:18.783Z,9.90
2019-05-05T17:15:53.939Z,9.90
2019-05-05T17:18:35.359Z,9.80
2019-05-05T17:21:04.188Z,9.80
2019-05-05T17:23:34.526Z,9.80
2019-05-05T17:26:05.086Z,9.80
2019-05-05T17:28:35.502Z,9.70
2019-05-05T17:31:06.082Z,9.50
2019-05-05T17:33:38.540Z,9.40
2019-05-05T17:36:08.497Z,9.30
2019-05-05T17:38:38.909Z,9.40
2019-05-05T17:41:20.323Z,9.10
2019-05-05T17:43:54.039Z,9.20
2019-05-05T17:46:28.758Z,9.20
2019-05-05T17:49:00.748Z,9.20
2019-05-05T17:51:49.350Z,9.20
2019-05-05T17:54:21.575Z,9.10
2019-05-05T17:56:53.033Z,9.20
2019-05-05T17:59:24.963Z,9.20
2019-05-05T18:01:55.307Z,9.20
2019-05-05T18:04:25.723Z,9.20
2019-05-05T18:07:04.222Z,9.00
2019-05-05T18:09:36.427Z,9.20
2019-05-05T18:12:11.443Z,9.10
2019-05-05T18:14:44.348Z,9.10
2019-05-05T18:17:14.990Z,9.00
2019-05-05T18:19:46.598Z,9.00
2019-05-05T18:22:16.947Z,9.10
2019-05-05T18:24:47.373Z,9.20
2019-05-05T18:27:19.027Z,9.10
2019-05-05T18:29:49.449Z,9.00
2019-05-05T18:32:19.799Z,8.90
2019-05-05T18:34:50.246Z,8.90
2019-05-05T18:37:20.604Z,8.90
2019-05-05T18:39:51.085Z,8.80
2019-05-05T18:42:24.541Z,8.80
2019-05-05T18:44:59.455Z,8.90
2019-05-05T18:47:29.803Z,9.00
2019-05-05T18:50:00.308Z,9.00
2019-05-05T18:52:30.715Z,9.10
2019-05-05T18:55:01.145Z,9.00
2019-05-05T18:57:31.668Z,9.10
2019-05-05T19:00:03.745Z,9.20
2019-05-05T19:02:37.155Z,9.00
2019-05-05T19:05:14.028Z,9.10
2019-05-05T19:07:55.817Z,9.00
2019-05-05T19:10:24.285Z,9.00
2019-05-05T19:12:55.328Z,8.90
2019-05-05T19:15:25.851Z,9.00
2019-05-05T19:17:56.211Z,9.00
2019-05-05T19:20:30.995Z,8.90
2019-05-05T19:23:05.244Z,8.90
2019-05-05T19:25:35.728Z,8.90
2019-05-05T19:28:06.774Z,8.90
2019-05-05T19:30:37.287Z,8.90
2019-05-05T19:33:07.739Z,8.80
2019-05-05T19:35:43.955Z,8.90
2019-05-05T19:38:10.118Z,8.90
2019-05-05T19:40:40.539Z,8.90
2019-05-05T19:43:10.996Z,8.90
2019-05-05T19:45:41.414Z,8.80
2019-05-05T19:48:11.841Z,8.80
2019-05-05T19:50:49.710Z,8.70
2019-05-05T19:53:24.500Z,8.80
2019-05-05T19:55:56.326Z,8.80
2019-05-05T19:58:26.724Z,8.80
2019-05-05T20:00:58.804Z,8.70
2019-05-05T20:03:29.316Z,8.80
2019-05-05T20:06:00.020Z,8.80
2019-05-05T20:08:40.303Z,8.90
2019-05-05T20:11:04.677Z,8.90
2019-05-05T20:13:34.510Z,8.90
2019-05-05T20:16:06.654Z,8.90
2019-05-05T20:18:37.093Z,8.90
2019-05-05T20:21:07.571Z,8.90
2019-05-05T20:23:38.464Z,8.90
2019-05-05T20:26:08.829Z,8.90
2019-05-05T20:28:39.247Z,8.80
2019-05-05T20:31:09.636Z,8.90
2019-05-05T20:33:44.589Z,8.90
2019-05-05T20:36:19.816Z,8.90
2019-05-05T20:38:54.906Z,8.90
2019-05-05T20:41:25.587Z,8.90
2019-05-05T20:43:56.019Z,8.90
2019-05-05T20:46:26.384Z,8.90
2019-05-05T20:48:56.804Z,8.90
2019-05-05T20:51:27.207Z,8.80
2019-05-05T20:53:57.570Z,8.80
2019-05-05T20:56:27.994Z,8.90
2019-05-05T20:58:58.347Z,8.90
2019-05-05T21:01:28.781Z,8.90
2019-05-05T21:03:59.121Z,8.90
2019-05-05T21:06:29.527Z,8.90
2019-05-05T21:08:59.893Z,8.90
2019-05-05T21:11:30.300Z,9.00
2019-05-05T21:14:00.648Z,9.10
2019-05-05T21:16:31.082Z,9.10
2019-05-05T21:19:01.429Z,9.00
2019-05-05T21:21:34.369Z,9.00
2019-05-05T21:24:05.580Z,9.00
2019-05-05T21:26:49.909Z,9.00
2019-05-05T21:29:20.260Z,9.10
2019-05-05T21:31:50.819Z,9.10
2019-05-05T21:34:24.639Z,9.00
2019-05-05T21:36:54.406Z,9.00
2019-05-05T21:39:25.000Z,9.00
2019-05-05T21:41:55.684Z,8.90
2019-05-05T21:44:26.098Z,8.90
2019-05-05T21:46:59.142Z,8.90
2019-05-05T21:49:28.485Z,8.90
2019-05-05T21:52:00.441Z,8.90
2019-05-05T21:54:34.165Z,8.90
2019-05-05T21:57:15.033Z,9.00
2019-05-05T21:59:55.160Z,9.10
2019-05-05T22:02:18.016Z,9.20
2019-05-05T22:04:48.486Z,9.20
2019-05-05T22:07:18.906Z,9.10
2019-05-05T22:09:49.243Z,9.10
2019-05-05T22:12:19.672Z,8.90
2019-05-05T22:14:50.031Z,8.90
2019-05-05T22:17:20.470Z,8.90
2019-05-05T22:19:54.164Z,8.90
2019-05-05T22:22:25.994Z,8.90
2019-05-05T22:24:56.347Z,9.00
2019-05-05T22:27:26.855Z,8.90
2019-05-05T22:30:09.105Z,8.90
2019-05-05T22:32:29.251Z,8.80
2019-05-05T22:34:59.670Z,8.70
2019-05-05T22:37:30.039Z,8.70
2019-05-05T22:40:00.461Z,8.70
2019-05-05T22:42:30.841Z,8.80
2019-05-05T22:45:01.250Z,8.80
2019-05-05T22:47:34.482Z,8.80
2019-05-05T22:50:06.144Z,8.70
2019-05-05T22:52:36.518Z,8.80
2019-05-05T22:55:07.056Z,8.80
2019-05-05T22:57:37.419Z,8.70
2019-05-05T23:00:25.304Z,8.70
2019-05-05T23:02:54.877Z,8.70
2019-05-05T23:05:44.780Z,8.60
2019-05-05T23:08:18.919Z,8.60
2019-05-05T23:10:54.272Z,8.60
2019-05-05T23:13:25.927Z,8.60
2019-05-05T23:16:01.415Z,8.60
2019-05-05T23:18:34.748Z,8.60
2019-05-05T23:21:19.573Z,8.60
2019-05-05T23:24:06.188Z,8.70
2019-05-05T23:26:46.986Z,8.60
2019-05-05T23:29:17.837Z,8.70
2019-05-05T23:31:53.681Z,8.80
2019-05-05T23:34:38.506Z,8.70
2019-05-05T23:37:13.844Z,8.60
2019-05-05T23:39:47.569Z,8.50
2019-05-05T23:42:19.824Z,8.60
2019-05-05T23:44:50.842Z,8.60
2019-05-05T23:47:24.733Z,8.60
2019-05-05T23:49:59.010Z,8.50
2019-05-05T23:52:29.587Z,8.50
2019-05-05T23:55:03.908Z,8.50
2019-05-05T23:57:34.394Z,8.40
